sensor_id;sensor_type;location;lat;lon;timestamp;P1;durP1;ratioP1;P2;durP2;ratioP2
37309;SDS011;23195;47.744;7.358;2022-09-28T00:00:25;6.60;;;2.13;;
37309;SDS011;23195;47.744;7.358;2022-09-28T00:02:53;6.30;;;1.90;;
37309;SDS011;23195;47.744;7.358;2022-09-28T00:05:21;11.97;;;2.10;;
37309;SDS011;23195;47.744;7.358;2022-09-28T00:07:51;9.30;;;2.00;;
37309;SDS011;23195;47.744;7.358;2022-09-28T00:10:18;4.40;;;1.90;;
37309;SDS011;23195;47.744;7.358;2022-09-28T00:12:47;8.70;;;2.20;;
37309;SDS011;23195;47.744;7.358;2022-09-28T00:15:13;6.23;;;2.00;;
37309;SDS011;23195;47.744;7.358;2022-09-28T00:17:39;6.50;;;2.00;;
37309;SDS011;23195;47.744;7.358;2022-09-28T00:20:05;8.30;;;2.10;;
37309;SDS011;23195;47.744;7.358;2022-09-28T00:22:31;6.97;;;2.00;;
37309;SDS011;23195;47.744;7.358;2022-09-28T00:24:57;5.17;;;1.80;;
37309;SDS011;23195;47.744;7.358;2022-09-28T00:27:22;10.03;;;2.20;;
37309;SDS011;23195;47.744;7.358;2022-09-28T00:29:48;7.70;;;2.00;;
37309;SDS011;23195;47.744;7.358;2022-09-28T00:32:14;5.03;;;1.90;;
37309;SDS011;23195;47.744;7.358;2022-09-28T00:34:41;7.47;;;2.10;;
37309;SDS011;23195;47.744;7.358;2022-09-28T00:37:10;7.33;;;1.87;;
37309;SDS011;23195;47.744;7.358;2022-09-28T00:39:37;4.57;;;1.60;;
37309;SDS011;23195;47.744;7.358;2022-09-28T00:42:14;8.07;;;1.90;;
37309;SDS011;23195;47.744;7.358;2022-09-28T00:50:13;5.57;;;2.13;;
37309;SDS011;23195;47.744;7.358;2022-09-28T00:53:00;6.83;;;2.03;;
37309;SDS011;23195;47.744;7.358;2022-09-28T00:55:30;4.67;;;1.60;;
37309;SDS011;23195;47.744;7.358;2022-09-28T00:58:17;5.10;;;1.90;;
37309;SDS011;23195;47.744;7.358;2022-09-28T01:00:50;8.07;;;2.37;;
37309;SDS011;23195;47.744;7.358;2022-09-28T01:03:18;6.90;;;1.80;;
37309;SDS011;23195;47.744;7.358;2022-09-28T01:05:44;5.50;;;1.87;;
37309;SDS011;23195;47.744;7.358;2022-09-28T01:08:12;7.67;;;1.90;;
37309;SDS011;23195;47.744;7.358;2022-09-28T01:10:40;8.70;;;1.60;;
37309;SDS011;23195;47.744;7.358;2022-09-28T01:13:07;7.13;;;1.77;;
37309;SDS011;23195;47.744;7.358;2022-09-28T01:15:37;7.50;;;1.73;;
37309;SDS011;23195;47.744;7.358;2022-09-28T01:18:28;6.40;;;1.87;;
37309;SDS011;23195;47.744;7.358;2022-09-28T01:29:05;8.13;;;2.13;;
37309;SDS011;23195;47.744;7.358;2022-09-28T01:31:46;8.43;;;1.93;;
37309;SDS011;23195;47.744;7.358;2022-09-28T01:34:18;8.37;;;1.90;;
37309;SDS011;23195;47.744;7.358;2022-09-28T01:36:50;5.97;;;1.80;;
37309;SDS011;23195;47.744;7.358;2022-09-28T01:39:25;4.10;;;1.67;;
37309;SDS011;23195;47.744;7.358;2022-09-28T01:41:55;3.77;;;1.60;;
37309;SDS011;23195;47.744;7.358;2022-09-28T01:44:24;6.03;;;1.73;;
37309;SDS011;23195;47.744;7.358;2022-09-28T01:46:54;6.87;;;1.93;;
37309;SDS011;23195;47.744;7.358;2022-09-28T01:49:31;5.40;;;1.60;;
37309;SDS011;23195;47.744;7.358;2022-09-28T01:52:05;6.57;;;1.60;;
37309;SDS011;23195;47.744;7.358;2022-09-28T01:54:57;5.57;;;1.60;;
37309;SDS011;23195;47.744;7.358;2022-09-28T01:57:38;4.80;;;1.67;;
37309;SDS011;23195;47.744;7.358;2022-09-28T02:00:17;4.77;;;1.53;;
37309;SDS011;23195;47.744;7.358;2022-09-28T02:05:41;3.90;;;1.60;;
37309;SDS011;23195;47.744;7.358;2022-09-28T02:13:38;5.77;;;2.10;;
37309;SDS011;23195;47.744;7.358;2022-09-28T02:16:29;5.63;;;2.00;;
37309;SDS011;23195;47.744;7.358;2022-09-28T02:19:20;5.40;;;2.00;;
37309;SDS011;23195;47.744;7.358;2022-09-28T02:24:55;5.73;;;1.80;;
37309;SDS011;23195;47.744;7.358;2022-09-28T02:30:16;5.93;;;2.07;;
37309;SDS011;23195;47.744;7.358;2022-09-28T02:32:44;5.50;;;1.90;;
37309;SDS011;23195;47.744;7.358;2022-09-28T02:35:14;5.03;;;1.87;;
37309;SDS011;23195;47.744;7.358;2022-09-28T02:37:41;6.67;;;1.93;;
37309;SDS011;23195;47.744;7.358;2022-09-28T02:40:18;9.57;;;2.30;;
37309;SDS011;23195;47.744;7.358;2022-09-28T02:42:51;6.80;;;1.90;;
37309;SDS011;23195;47.744;7.358;2022-09-28T02:54:49;6.63;;;2.00;;
37309;SDS011;23195;47.744;7.358;2022-09-28T02:57:22;5.00;;;1.83;;
37309;SDS011;23195;47.744;7.358;2022-09-28T03:08:24;8.57;;;3.30;;
37309;SDS011;23195;47.744;7.358;2022-09-28T03:11:18;11.70;;;2.97;;
37309;SDS011;23195;47.744;7.358;2022-09-28T03:13:54;6.10;;;2.60;;
37309;SDS011;23195;47.744;7.358;2022-09-28T03:16:20;4.83;;;2.17;;
37309;SDS011;23195;47.744;7.358;2022-09-28T03:18:46;5.17;;;2.27;;
37309;SDS011;23195;47.744;7.358;2022-09-28T03:21:12;8.83;;;2.00;;
37309;SDS011;23195;47.744;7.358;2022-09-28T03:23:39;6.40;;;2.27;;
37309;SDS011;23195;47.744;7.358;2022-09-28T03:26:11;7.37;;;2.27;;
37309;SDS011;23195;47.744;7.358;2022-09-28T03:28:38;6.00;;;2.40;;
37309;SDS011;23195;47.744;7.358;2022-09-28T03:31:04;7.87;;;3.03;;
37309;SDS011;23195;47.744;7.358;2022-09-28T03:33:30;8.40;;;2.13;;
37309;SDS011;23195;47.744;7.358;2022-09-28T03:35:56;6.63;;;2.03;;
37309;SDS011;23195;47.744;7.358;2022-09-28T03:38:21;6.23;;;2.33;;
37309;SDS011;23195;47.744;7.358;2022-09-28T03:40:57;6.50;;;2.40;;
37309;SDS011;23195;47.744;7.358;2022-09-28T03:43:24;7.17;;;2.83;;
37309;SDS011;23195;47.744;7.358;2022-09-28T03:45:54;4.63;;;2.60;;
37309;SDS011;23195;47.744;7.358;2022-09-28T03:48:29;7.83;;;3.07;;
37309;SDS011;23195;47.744;7.358;2022-09-28T03:50:57;6.97;;;3.10;;
37309;SDS011;23195;47.744;7.358;2022-09-28T03:53:33;5.63;;;2.57;;
37309;SDS011;23195;47.744;7.358;2022-09-28T03:56:04;5.60;;;2.50;;
37309;SDS011;23195;47.744;7.358;2022-09-28T03:58:32;4.57;;;1.80;;
37309;SDS011;23195;47.744;7.358;2022-09-28T04:01:02;4.90;;;2.10;;
37309;SDS011;23195;47.744;7.358;2022-09-28T04:03:33;5.17;;;2.00;;
37309;SDS011;23195;47.744;7.358;2022-09-28T04:05:58;2.93;;;1.70;;
37309;SDS011;23195;47.744;7.358;2022-09-28T04:08:25;5.73;;;2.10;;
37309;SDS011;23195;47.744;7.358;2022-09-28T04:10:50;2.63;;;1.90;;
37309;SDS011;23195;47.744;7.358;2022-09-28T04:13:19;5.40;;;2.33;;
37309;SDS011;23195;47.744;7.358;2022-09-28T04:15:50;5.10;;;2.20;;
37309;SDS011;23195;47.744;7.358;2022-09-28T04:18:18;4.53;;;2.00;;
37309;SDS011;23195;47.744;7.358;2022-09-28T04:20:44;5.40;;;1.80;;
37309;SDS011;23195;47.744;7.358;2022-09-28T04:23:12;4.93;;;2.30;;
37309;SDS011;23195;47.744;7.358;2022-09-28T04:25:38;5.33;;;2.23;;
37309;SDS011;23195;47.744;7.358;2022-09-28T04:28:04;3.83;;;1.67;;
37309;SDS011;23195;47.744;7.358;2022-09-28T04:30:48;3.43;;;1.70;;
37309;SDS011;23195;47.744;7.358;2022-09-28T04:33:14;3.60;;;1.60;;
37309;SDS011;23195;47.744;7.358;2022-09-28T04:35:40;4.73;;;2.17;;
37309;SDS011;23195;47.744;7.358;2022-09-28T04:38:06;1.73;;;1.23;;
37309;SDS011;23195;47.744;7.358;2022-09-28T04:40:31;3.80;;;1.13;;
37309;SDS011;23195;47.744;7.358;2022-09-28T04:42:57;3.83;;;1.13;;
37309;SDS011;23195;47.744;7.358;2022-09-28T04:45:23;3.27;;;1.30;;
37309;SDS011;23195;47.744;7.358;2022-09-28T04:47:50;1.63;;;1.13;;
37309;SDS011;23195;47.744;7.358;2022-09-28T04:50:17;3.43;;;1.20;;
37309;SDS011;23195;47.744;7.358;2022-09-28T04:52:42;2.50;;;1.43;;
37309;SDS011;23195;47.744;7.358;2022-09-28T04:55:11;3.13;;;1.70;;
37309;SDS011;23195;47.744;7.358;2022-09-28T04:57:38;4.03;;;1.30;;
37309;SDS011;23195;47.744;7.358;2022-09-28T05:00:05;2.63;;;0.87;;
37309;SDS011;23195;47.744;7.358;2022-09-28T05:02:32;1.97;;;0.97;;
37309;SDS011;23195;47.744;7.358;2022-09-28T05:04:58;1.50;;;0.80;;
37309;SDS011;23195;47.744;7.358;2022-09-28T05:07:26;0.97;;;0.80;;
37309;SDS011;23195;47.744;7.358;2022-09-28T05:09:52;3.07;;;1.10;;
37309;SDS011;23195;47.744;7.358;2022-09-28T05:12:19;0.90;;;0.73;;
37309;SDS011;23195;47.744;7.358;2022-09-28T05:14:46;1.00;;;0.73;;
37309;SDS011;23195;47.744;7.358;2022-09-28T05:17:11;1.87;;;0.70;;
37309;SDS011;23195;47.744;7.358;2022-09-28T05:19:37;1.13;;;0.83;;
37309;SDS011;23195;47.744;7.358;2022-09-28T05:22:03;1.47;;;0.77;;
37309;SDS011;23195;47.744;7.358;2022-09-28T05:24:30;2.00;;;1.17;;
37309;SDS011;23195;47.744;7.358;2022-09-28T05:26:55;0.87;;;0.60;;
37309;SDS011;23195;47.744;7.358;2022-09-28T05:29:21;1.17;;;0.60;;
37309;SDS011;23195;47.744;7.358;2022-09-28T05:31:47;2.23;;;0.73;;
37309;SDS011;23195;47.744;7.358;2022-09-28T05:34:13;0.97;;;0.80;;
37309;SDS011;23195;47.744;7.358;2022-09-28T05:36:39;1.30;;;0.60;;
37309;SDS011;23195;47.744;7.358;2022-09-28T05:39:06;1.67;;;0.87;;
37309;SDS011;23195;47.744;7.358;2022-09-28T05:41:33;2.00;;;0.70;;
37309;SDS011;23195;47.744;7.358;2022-09-28T05:43:59;3.43;;;0.70;;
37309;SDS011;23195;47.744;7.358;2022-09-28T05:46:25;2.60;;;0.77;;
37309;SDS011;23195;47.744;7.358;2022-09-28T05:48:51;2.57;;;0.53;;
37309;SDS011;23195;47.744;7.358;2022-09-28T05:51:18;2.20;;;0.77;;
37309;SDS011;23195;47.744;7.358;2022-09-28T05:53:44;1.40;;;0.60;;
37309;SDS011;23195;47.744;7.358;2022-09-28T05:56:10;1.67;;;0.57;;
37309;SDS011;23195;47.744;7.358;2022-09-28T05:58:36;1.27;;;0.60;;
37309;SDS011;23195;47.744;7.358;2022-09-28T06:01:02;2.73;;;0.60;;
37309;SDS011;23195;47.744;7.358;2022-09-28T06:03:27;1.33;;;0.60;;
37309;SDS011;23195;47.744;7.358;2022-09-28T06:05:53;1.90;;;0.80;;
37309;SDS011;23195;47.744;7.358;2022-09-28T06:08:19;2.00;;;0.70;;
37309;SDS011;23195;47.744;7.358;2022-09-28T06:10:46;2.67;;;0.63;;
37309;SDS011;23195;47.744;7.358;2022-09-28T06:13:12;2.60;;;0.80;;
37309;SDS011;23195;47.744;7.358;2022-09-28T06:15:40;2.13;;;0.50;;
37309;SDS011;23195;47.744;7.358;2022-09-28T06:18:08;2.00;;;0.63;;
37309;SDS011;23195;47.744;7.358;2022-09-28T06:20:38;0.60;;;0.57;;
37309;SDS011;23195;47.744;7.358;2022-09-28T06:23:05;0.77;;;0.50;;
37309;SDS011;23195;47.744;7.358;2022-09-28T06:25:31;1.03;;;0.40;;
37309;SDS011;23195;47.744;7.358;2022-09-28T06:28:01;1.10;;;0.63;;
37309;SDS011;23195;47.744;7.358;2022-09-28T06:30:33;2.33;;;2.10;;
37309;SDS011;23195;47.744;7.358;2022-09-28T06:33:00;1.10;;;0.50;;
37309;SDS011;23195;47.744;7.358;2022-09-28T06:35:27;1.23;;;0.50;;
37309;SDS011;23195;47.744;7.358;2022-09-28T06:37:54;1.07;;;0.50;;
37309;SDS011;23195;47.744;7.358;2022-09-28T06:40:21;0.83;;;0.60;;
37309;SDS011;23195;47.744;7.358;2022-09-28T06:43:06;0.80;;;0.50;;
37309;SDS011;23195;47.744;7.358;2022-09-28T06:45:38;1.03;;;0.50;;
37309;SDS011;23195;47.744;7.358;2022-09-28T06:48:05;2.30;;;0.50;;
37309;SDS011;23195;47.744;7.358;2022-09-28T06:50:43;1.83;;;0.40;;
37309;SDS011;23195;47.744;7.358;2022-09-28T06:53:10;1.03;;;0.57;;
37309;SDS011;23195;47.744;7.358;2022-09-28T06:55:40;1.80;;;0.50;;
37309;SDS011;23195;47.744;7.358;2022-09-28T06:58:11;4.30;;;0.53;;
37309;SDS011;23195;47.744;7.358;2022-09-28T07:00:38;1.77;;;0.60;;
37309;SDS011;23195;47.744;7.358;2022-09-28T07:03:06;1.50;;;0.60;;
37309;SDS011;23195;47.744;7.358;2022-09-28T07:05:38;1.97;;;0.73;;
37309;SDS011;23195;47.744;7.358;2022-09-28T07:08:10;2.40;;;0.80;;
37309;SDS011;23195;47.744;7.358;2022-09-28T07:10:41;2.00;;;1.00;;
37309;SDS011;23195;47.744;7.358;2022-09-28T07:13:08;2.47;;;0.73;;
37309;SDS011;23195;47.744;7.358;2022-09-28T07:15:34;3.83;;;1.20;;
37309;SDS011;23195;47.744;7.358;2022-09-28T07:18:02;3.43;;;1.50;;
37309;SDS011;23195;47.744;7.358;2022-09-28T07:20:29;3.67;;;1.30;;
37309;SDS011;23195;47.744;7.358;2022-09-28T07:22:58;4.23;;;1.10;;
37309;SDS011;23195;47.744;7.358;2022-09-28T07:25:26;2.87;;;0.90;;
37309;SDS011;23195;47.744;7.358;2022-09-28T07:27:57;3.93;;;1.20;;
37309;SDS011;23195;47.744;7.358;2022-09-28T07:30:24;3.63;;;0.90;;
37309;SDS011;23195;47.744;7.358;2022-09-28T07:32:51;4.17;;;0.93;;
37309;SDS011;23195;47.744;7.358;2022-09-28T07:35:20;2.50;;;1.00;;
37309;SDS011;23195;47.744;7.358;2022-09-28T07:37:46;2.80;;;1.23;;
37309;SDS011;23195;47.744;7.358;2022-09-28T07:40:12;5.80;;;1.30;;
37309;SDS011;23195;47.744;7.358;2022-09-28T07:43:07;3.70;;;1.17;;
37309;SDS011;23195;47.744;7.358;2022-09-28T07:45:32;2.53;;;1.10;;
37309;SDS011;23195;47.744;7.358;2022-09-28T07:48:00;3.57;;;0.90;;
37309;SDS011;23195;47.744;7.358;2022-09-28T07:50:26;3.67;;;1.10;;
37309;SDS011;23195;47.744;7.358;2022-09-28T07:52:52;3.87;;;1.10;;
37309;SDS011;23195;47.744;7.358;2022-09-28T07:55:19;6.07;;;1.50;;
37309;SDS011;23195;47.744;7.358;2022-09-28T07:57:45;2.00;;;0.97;;
37309;SDS011;23195;47.744;7.358;2022-09-28T08:00:12;4.27;;;1.00;;
37309;SDS011;23195;47.744;7.358;2022-09-28T08:02:38;2.90;;;1.10;;
37309;SDS011;23195;47.744;7.358;2022-09-28T08:05:04;4.37;;;1.00;;
37309;SDS011;23195;47.744;7.358;2022-09-28T08:07:31;4.30;;;1.20;;
37309;SDS011;23195;47.744;7.358;2022-09-28T08:09:58;4.77;;;0.90;;
37309;SDS011;23195;47.744;7.358;2022-09-28T08:12:24;3.10;;;1.20;;
37309;SDS011;23195;47.744;7.358;2022-09-28T08:14:49;2.97;;;1.00;;
37309;SDS011;23195;47.744;7.358;2022-09-28T08:17:16;3.87;;;1.20;;
37309;SDS011;23195;47.744;7.358;2022-09-28T08:19:42;5.13;;;1.17;;
37309;SDS011;23195;47.744;7.358;2022-09-28T08:22:26;4.77;;;1.53;;
37309;SDS011;23195;47.744;7.358;2022-09-28T08:24:54;3.03;;;1.97;;
37309;SDS011;23195;47.744;7.358;2022-09-28T08:27:20;3.93;;;1.80;;
37309;SDS011;23195;47.744;7.358;2022-09-28T08:29:45;2.60;;;1.30;;
37309;SDS011;23195;47.744;7.358;2022-09-28T08:32:11;5.33;;;1.40;;
37309;SDS011;23195;47.744;7.358;2022-09-28T08:34:38;4.87;;;1.60;;
37309;SDS011;23195;47.744;7.358;2022-09-28T08:37:05;2.87;;;1.10;;
37309;SDS011;23195;47.744;7.358;2022-09-28T08:39:33;4.73;;;1.30;;
37309;SDS011;23195;47.744;7.358;2022-09-28T08:44:55;2.40;;;1.10;;
37309;SDS011;23195;47.744;7.358;2022-09-28T08:47:32;3.80;;;1.20;;
37309;SDS011;23195;47.744;7.358;2022-09-28T08:50:23;1.63;;;1.40;;
37309;SDS011;23195;47.744;7.358;2022-09-28T08:52:55;2.90;;;1.20;;
37309;SDS011;23195;47.744;7.358;2022-09-28T08:55:46;2.13;;;1.20;;
37309;SDS011;23195;47.744;7.358;2022-09-28T08:58:14;4.07;;;1.40;;
37309;SDS011;23195;47.744;7.358;2022-09-28T09:00:45;3.23;;;1.40;;
37309;SDS011;23195;47.744;7.358;2022-09-28T09:03:19;4.27;;;1.10;;
37309;SDS011;23195;47.744;7.358;2022-09-28T09:12:48;3.67;;;1.40;;
37309;SDS011;23195;47.744;7.358;2022-09-28T09:15:08;3.90;;;1.40;;
37309;SDS011;23195;47.744;7.358;2022-09-28T09:26:04;2.93;;;1.40;;
37309;SDS011;23195;47.744;7.358;2022-09-28T09:31:20;3.13;;;1.37;;
37309;SDS011;23195;47.744;7.358;2022-09-28T09:36:29;3.63;;;2.20;;
37309;SDS011;23195;47.744;7.358;2022-09-28T09:42:30;5.10;;;1.70;;
37309;SDS011;23195;47.744;7.358;2022-09-28T09:45:23;3.90;;;1.70;;
37309;SDS011;23195;47.744;7.358;2022-09-28T09:48:12;3.80;;;1.60;;
37309;SDS011;23195;47.744;7.358;2022-09-28T09:50:51;4.50;;;1.33;;
37309;SDS011;23195;47.744;7.358;2022-09-28T09:53:43;4.20;;;1.80;;
37309;SDS011;23195;47.744;7.358;2022-09-28T09:56:33;2.30;;;1.30;;
37309;SDS011;23195;47.744;7.358;2022-09-28T09:59:10;4.10;;;1.40;;
37309;SDS011;23195;47.744;7.358;2022-09-28T10:01:48;3.53;;;1.30;;
37309;SDS011;23195;47.744;7.358;2022-09-28T10:04:17;4.73;;;2.03;;
37309;SDS011;23195;47.744;7.358;2022-09-28T10:06:54;9.57;;;2.00;;
37309;SDS011;23195;47.744;7.358;2022-09-28T10:09:23;4.67;;;1.70;;
37309;SDS011;23195;47.744;7.358;2022-09-28T10:11:54;6.37;;;2.10;;
37309;SDS011;23195;47.744;7.358;2022-09-28T10:14:24;3.57;;;1.70;;
37309;SDS011;23195;47.744;7.358;2022-09-28T10:16:51;5.40;;;1.77;;
37309;SDS011;23195;47.744;7.358;2022-09-28T10:19:19;3.03;;;1.63;;
37309;SDS011;23195;47.744;7.358;2022-09-28T10:21:49;4.50;;;1.53;;
37309;SDS011;23195;47.744;7.358;2022-09-28T10:24:25;3.30;;;1.70;;
37309;SDS011;23195;47.744;7.358;2022-09-28T10:27:03;4.80;;;2.30;;
37309;SDS011;23195;47.744;7.358;2022-09-28T10:29:36;3.27;;;1.60;;
37309;SDS011;23195;47.744;7.358;2022-09-28T10:32:18;4.63;;;2.10;;
37309;SDS011;23195;47.744;7.358;2022-09-28T10:34:48;4.80;;;1.77;;
37309;SDS011;23195;47.744;7.358;2022-09-28T10:37:15;3.93;;;1.63;;
37309;SDS011;23195;47.744;7.358;2022-09-28T10:39:52;6.90;;;2.20;;
37309;SDS011;23195;47.744;7.358;2022-09-28T10:42:20;5.93;;;1.90;;
37309;SDS011;23195;47.744;7.358;2022-09-28T10:44:54;6.63;;;2.50;;
37309;SDS011;23195;47.744;7.358;2022-09-28T10:47:31;7.97;;;2.77;;
37309;SDS011;23195;47.744;7.358;2022-09-28T10:49:59;6.40;;;2.50;;
37309;SDS011;23195;47.744;7.358;2022-09-28T10:52:38;5.07;;;2.87;;
37309;SDS011;23195;47.744;7.358;2022-09-28T10:57:50;5.67;;;2.37;;
37309;SDS011;23195;47.744;7.358;2022-09-28T11:03:03;3.17;;;1.83;;
37309;SDS011;23195;47.744;7.358;2022-09-28T11:05:32;4.40;;;1.83;;
37309;SDS011;23195;47.744;7.358;2022-09-28T11:07:59;6.90;;;1.80;;
37309;SDS011;23195;47.744;7.358;2022-09-28T11:10:30;4.13;;;2.10;;
37309;SDS011;23195;47.744;7.358;2022-09-28T11:12:56;5.07;;;1.60;;
37309;SDS011;23195;47.744;7.358;2022-09-28T11:15:25;4.23;;;1.70;;
37309;SDS011;23195;47.744;7.358;2022-09-28T11:17:53;3.43;;;1.57;;
37309;SDS011;23195;47.744;7.358;2022-09-28T11:22:50;4.13;;;2.00;;
37309;SDS011;23195;47.744;7.358;2022-09-28T11:33:16;6.40;;;2.13;;
37309;SDS011;23195;47.744;7.358;2022-09-28T11:35:55;4.73;;;1.70;;
37309;SDS011;23195;47.744;7.358;2022-09-28T11:50:12;3.60;;;1.83;;
37309;SDS011;23195;47.744;7.358;2022-09-28T11:53:03;3.83;;;2.07;;
37309;SDS011;23195;47.744;7.358;2022-09-28T12:03:50;4.73;;;2.10;;
37309;SDS011;23195;47.744;7.358;2022-09-28T12:06:24;3.23;;;1.83;;
37309;SDS011;23195;47.744;7.358;2022-09-28T12:09:21;4.27;;;1.80;;
37309;SDS011;23195;47.744;7.358;2022-09-28T12:11:55;3.83;;;1.70;;
37309;SDS011;23195;47.744;7.358;2022-09-28T12:14:28;4.93;;;1.80;;
37309;SDS011;23195;47.744;7.358;2022-09-28T12:17:59;2.47;;;1.80;;
37309;SDS011;23195;47.744;7.358;2022-09-28T12:20:01;5.50;;;1.90;;
37309;SDS011;23195;47.744;7.358;2022-09-28T12:22:48;3.33;;;2.00;;
37309;SDS011;23195;47.744;7.358;2022-09-28T12:25:25;5.53;;;1.90;;
37309;SDS011;23195;47.744;7.358;2022-09-28T12:28:07;7.77;;;1.80;;
37309;SDS011;23195;47.744;7.358;2022-09-28T12:30:55;4.40;;;1.83;;
37309;SDS011;23195;47.744;7.358;2022-09-28T12:33:24;5.20;;;2.23;;
37309;SDS011;23195;47.744;7.358;2022-09-28T12:38:26;7.13;;;2.20;;
37309;SDS011;23195;47.744;7.358;2022-09-28T12:40:59;5.80;;;2.30;;
37309;SDS011;23195;47.744;7.358;2022-09-28T12:43:47;9.00;;;2.27;;
37309;SDS011;23195;47.744;7.358;2022-09-28T12:46:48;4.70;;;2.33;;
37309;SDS011;23195;47.744;7.358;2022-09-28T13:00:36;4.33;;;2.30;;
37309;SDS011;23195;47.744;7.358;2022-09-28T13:11:07;3.27;;;1.63;;
37309;SDS011;23195;47.744;7.358;2022-09-28T13:25:38;3.23;;;1.90;;
37309;SDS011;23195;47.744;7.358;2022-09-28T13:28:12;3.07;;;1.77;;
37309;SDS011;23195;47.744;7.358;2022-09-28T13:30:40;3.70;;;1.90;;
37309;SDS011;23195;47.744;7.358;2022-09-28T13:33:09;4.77;;;1.97;;
37309;SDS011;23195;47.744;7.358;2022-09-28T13:35:43;3.63;;;1.70;;
37309;SDS011;23195;47.744;7.358;2022-09-28T13:43:30;2.33;;;1.50;;
37309;SDS011;23195;47.744;7.358;2022-09-28T13:54:29;6.23;;;1.80;;
37309;SDS011;23195;47.744;7.358;2022-09-28T14:00:31;4.30;;;1.97;;
37309;SDS011;23195;47.744;7.358;2022-09-28T14:02:45;5.67;;;1.90;;
37309;SDS011;23195;47.744;7.358;2022-09-28T14:07:55;4.33;;;1.80;;
37309;SDS011;23195;47.744;7.358;2022-09-28T14:16:23;4.77;;;2.03;;
37309;SDS011;23195;47.744;7.358;2022-09-28T14:18:55;4.50;;;2.30;;
37309;SDS011;23195;47.744;7.358;2022-09-28T14:24:14;2.60;;;1.50;;
37309;SDS011;23195;47.744;7.358;2022-09-28T14:29:32;5.30;;;2.60;;
37309;SDS011;23195;47.744;7.358;2022-09-28T14:32:20;3.37;;;1.80;;
37309;SDS011;23195;47.744;7.358;2022-09-28T14:34:53;4.40;;;2.27;;
37309;SDS011;23195;47.744;7.358;2022-09-28T14:40:20;4.17;;;1.83;;
37309;SDS011;23195;47.744;7.358;2022-09-28T14:43:18;2.87;;;1.70;;
37309;SDS011;23195;47.744;7.358;2022-09-28T14:53:49;4.33;;;1.77;;
37309;SDS011;23195;47.744;7.358;2022-09-28T14:56:15;4.20;;;2.10;;
37309;SDS011;23195;47.744;7.358;2022-09-28T14:58:43;5.83;;;1.93;;
37309;SDS011;23195;47.744;7.358;2022-09-28T15:01:13;4.07;;;2.00;;
37309;SDS011;23195;47.744;7.358;2022-09-28T15:03:57;4.57;;;2.20;;
37309;SDS011;23195;47.744;7.358;2022-09-28T15:06:31;4.57;;;2.33;;
37309;SDS011;23195;47.744;7.358;2022-09-28T15:11:57;5.43;;;2.23;;
37309;SDS011;23195;47.744;7.358;2022-09-28T15:14:40;3.83;;;2.00;;
37309;SDS011;23195;47.744;7.358;2022-09-28T15:17:16;2.30;;;1.87;;
37309;SDS011;23195;47.744;7.358;2022-09-28T15:25:54;3.10;;;2.30;;
37309;SDS011;23195;47.744;7.358;2022-09-28T15:28:21;3.70;;;2.50;;
37309;SDS011;23195;47.744;7.358;2022-09-28T15:30:48;3.67;;;2.30;;
37309;SDS011;23195;47.744;7.358;2022-09-28T15:33:27;4.33;;;3.20;;
37309;SDS011;23195;47.744;7.358;2022-09-28T15:36:26;4.53;;;2.30;;
37309;SDS011;23195;47.744;7.358;2022-09-28T15:38:55;4.57;;;2.47;;
37309;SDS011;23195;47.744;7.358;2022-09-28T15:41:27;4.47;;;2.60;;
37309;SDS011;23195;47.744;7.358;2022-09-28T15:46:38;6.20;;;2.50;;
37309;SDS011;23195;47.744;7.358;2022-09-28T15:49:05;3.90;;;2.53;;
37309;SDS011;23195;47.744;7.358;2022-09-28T15:51:47;5.77;;;3.03;;
37309;SDS011;23195;47.744;7.358;2022-09-28T15:54:20;3.57;;;2.60;;
37309;SDS011;23195;47.744;7.358;2022-09-28T15:56:54;4.40;;;2.43;;
37309;SDS011;23195;47.744;7.358;2022-09-28T16:04:34;5.30;;;3.43;;
37309;SDS011;23195;47.744;7.358;2022-09-28T16:15:20;5.93;;;2.93;;
37309;SDS011;23195;47.744;7.358;2022-09-28T16:17:50;4.67;;;3.23;;
37309;SDS011;23195;47.744;7.358;2022-09-28T16:20:26;5.37;;;3.20;;
37309;SDS011;23195;47.744;7.358;2022-09-28T16:25:51;5.33;;;3.00;;
37309;SDS011;23195;47.744;7.358;2022-09-28T16:31:00;5.10;;;3.23;;
37309;SDS011;23195;47.744;7.358;2022-09-28T16:36:26;8.37;;;3.20;;
37309;SDS011;23195;47.744;7.358;2022-09-28T16:39:10;5.80;;;3.00;;
37309;SDS011;23195;47.744;7.358;2022-09-28T16:41:36;6.20;;;3.40;;
37309;SDS011;23195;47.744;7.358;2022-09-28T16:44:04;4.47;;;3.27;;
37309;SDS011;23195;47.744;7.358;2022-09-28T16:46:43;7.37;;;3.47;;
37309;SDS011;23195;47.744;7.358;2022-09-28T16:49:10;4.90;;;3.03;;
37309;SDS011;23195;47.744;7.358;2022-09-28T16:51:46;5.30;;;2.90;;
37309;SDS011;23195;47.744;7.358;2022-09-28T16:54:22;7.30;;;3.87;;
37309;SDS011;23195;47.744;7.358;2022-09-28T16:57:08;7.20;;;3.67;;
37309;SDS011;23195;47.744;7.358;2022-09-28T16:59:36;6.33;;;4.13;;
37309;SDS011;23195;47.744;7.358;2022-09-28T17:02:14;4.50;;;2.87;;
37309;SDS011;23195;47.744;7.358;2022-09-28T17:04:41;6.70;;;3.00;;
37309;SDS011;23195;47.744;7.358;2022-09-28T17:07:08;4.27;;;2.40;;
37309;SDS011;23195;47.744;7.358;2022-09-28T17:09:38;5.40;;;2.93;;
37309;SDS011;23195;47.744;7.358;2022-09-28T17:12:13;5.63;;;3.20;;
37309;SDS011;23195;47.744;7.358;2022-09-28T17:14:43;6.50;;;3.67;;
37309;SDS011;23195;47.744;7.358;2022-09-28T17:17:10;6.33;;;2.83;;
37309;SDS011;23195;47.744;7.358;2022-09-28T17:19:36;4.57;;;2.93;;
37309;SDS011;23195;47.744;7.358;2022-09-28T17:22:02;4.43;;;3.00;;
37309;SDS011;23195;47.744;7.358;2022-09-28T17:24:27;5.23;;;3.00;;
37309;SDS011;23195;47.744;7.358;2022-09-28T17:26:53;4.90;;;3.47;;
37309;SDS011;23195;47.744;7.358;2022-09-28T17:29:19;6.87;;;3.30;;
37309;SDS011;23195;47.744;7.358;2022-09-28T17:31:46;5.07;;;2.90;;
37309;SDS011;23195;47.744;7.358;2022-09-28T17:34:12;4.77;;;3.10;;
37309;SDS011;23195;47.744;7.358;2022-09-28T17:36:40;7.57;;;3.67;;
37309;SDS011;23195;47.744;7.358;2022-09-28T17:39:14;9.20;;;4.00;;
37309;SDS011;23195;47.744;7.358;2022-09-28T17:41:41;9.73;;;4.03;;
37309;SDS011;23195;47.744;7.358;2022-09-28T17:44:07;11.00;;;3.97;;
37309;SDS011;23195;47.744;7.358;2022-09-28T17:46:37;18.80;;;6.00;;
37309;SDS011;23195;47.744;7.358;2022-09-28T17:49:11;11.93;;;4.63;;
37309;SDS011;23195;47.744;7.358;2022-09-28T17:51:37;11.60;;;4.50;;
37309;SDS011;23195;47.744;7.358;2022-09-28T17:54:03;7.53;;;4.20;;
37309;SDS011;23195;47.744;7.358;2022-09-28T17:56:31;6.63;;;4.67;;
37309;SDS011;23195;47.744;7.358;2022-09-28T17:59:01;7.93;;;4.60;;
37309;SDS011;23195;47.744;7.358;2022-09-28T18:01:29;12.37;;;5.47;;
37309;SDS011;23195;47.744;7.358;2022-09-28T18:03:58;7.60;;;4.73;;
37309;SDS011;23195;47.744;7.358;2022-09-28T18:06:25;8.93;;;4.60;;
37309;SDS011;23195;47.744;7.358;2022-09-28T18:08:53;8.97;;;4.80;;
37309;SDS011;23195;47.744;7.358;2022-09-28T18:11:19;8.07;;;4.80;;
37309;SDS011;23195;47.744;7.358;2022-09-28T18:13:45;10.37;;;5.53;;
37309;SDS011;23195;47.744;7.358;2022-09-28T18:16:11;10.27;;;5.77;;
37309;SDS011;23195;47.744;7.358;2022-09-28T18:18:38;10.27;;;6.60;;
37309;SDS011;23195;47.744;7.358;2022-09-28T18:21:07;10.63;;;5.53;;
37309;SDS011;23195;47.744;7.358;2022-09-28T18:23:36;10.87;;;5.90;;
37309;SDS011;23195;47.744;7.358;2022-09-28T18:26:03;9.40;;;5.67;;
37309;SDS011;23195;47.744;7.358;2022-09-28T18:28:37;8.70;;;5.20;;
37309;SDS011;23195;47.744;7.358;2022-09-28T18:31:06;6.67;;;4.93;;
37309;SDS011;23195;47.744;7.358;2022-09-28T18:33:36;5.43;;;3.57;;
37309;SDS011;23195;47.744;7.358;2022-09-28T18:36:03;6.43;;;3.60;;
37309;SDS011;23195;47.744;7.358;2022-09-28T18:38:35;4.67;;;3.40;;
37309;SDS011;23195;47.744;7.358;2022-09-28T18:41:06;5.50;;;3.53;;
37309;SDS011;23195;47.744;7.358;2022-09-28T18:43:38;10.47;;;4.97;;
37309;SDS011;23195;47.744;7.358;2022-09-28T18:46:05;7.73;;;4.30;;
37309;SDS011;23195;47.744;7.358;2022-09-28T18:48:34;10.17;;;4.80;;